createdAt,value
2023-05-11T00:01:46.263Z,9.90
2023-05-11T00:04:13.303Z,9.90
2023-05-11T00:06:40.095Z,9.90
2023-05-11T00:09:07.621Z,9.90
2023-05-11T00:11:34.379Z,9.80
2023-05-11T00:14:01.413Z,9.90
2023-05-11T00:16:28.289Z,9.80
2023-05-11T00:18:55.421Z,9.80
2023-05-11T00:21:22.909Z,9.80
2023-05-11T00:23:50.096Z,9.80
2023-05-11T00:26:16.977Z,9.80
2023-05-11T00:28:45.359Z,9.80
2023-05-11T00:31:12.216Z,9.80
2023-05-11T00:33:39.052Z,9.80
2023-05-11T00:36:06.278Z,9.70
2023-05-11T00:38:33.128Z,9.80
2023-05-11T00:40:59.899Z,9.70
2023-05-11T00:43:26.658Z,9.70
2023-05-11T00:45:53.586Z,9.70
2023-05-11T00:48:20.531Z,9.70
2023-05-11T00:50:47.803Z,9.70
2023-05-11T00:53:14.811Z,9.70
2023-05-11T00:55:42.026Z,9.70
2023-05-11T00:58:08.975Z,9.70
2023-05-11T01:00:36.773Z,9.60
2023-05-11T01:03:04.564Z,9.60
2023-05-11T01:06:25.139Z,9.60
2023-05-11T01:09:06.213Z,9.60
2023-05-11T01:11:43.695Z,9.60
2023-05-11T01:14:21.716Z,9.60
2023-05-11T01:16:55.220Z,9.60
2023-05-11T01:19:46.868Z,9.60
2023-05-11T01:23:11.176Z,9.50
2023-05-11T01:25:59.958Z,9.50
2023-05-11T01:28:41.508Z,9.50
2023-05-11T01:31:13.622Z,9.50
2023-05-11T01:33:48.082Z,9.50
2023-05-11T01:36:17.535Z,9.50
2023-05-11T01:38:47.567Z,9.50
2023-05-11T01:41:17.607Z,9.50
2023-05-11T01:43:53.599Z,9.50
2023-05-11T01:46:24.866Z,9.50
2023-05-11T01:48:55.399Z,9.50
2023-05-11T01:51:25.790Z,9.50
2023-05-11T01:53:54.550Z,9.50
2023-05-11T01:56:22.736Z,9.50
2023-05-11T01:58:51.149Z,9.50
2023-05-11T02:01:19.481Z,9.50
2023-05-11T02:03:47.998Z,9.50
2023-05-11T02:06:18.872Z,9.50
2023-05-11T02:08:48.205Z,9.50
2023-05-11T02:11:15.915Z,9.50
2023-05-11T02:13:45.795Z,9.50
2023-05-11T02:16:14.829Z,9.50
2023-05-11T02:18:42.819Z,9.50
2023-05-11T02:21:10.928Z,9.50
2023-05-11T02:23:39.744Z,9.50
2023-05-11T02:26:08.489Z,9.50
2023-05-11T02:28:36.030Z,9.50
2023-05-11T02:31:09.426Z,9.50
2023-05-11T02:33:40.996Z,9.40
2023-05-11T02:36:08.246Z,9.40
2023-05-11T02:38:38.652Z,9.50
2023-05-11T02:41:13.882Z,9.40
2023-05-11T02:43:46.044Z,9.40
2023-05-11T02:46:17.102Z,9.40
2023-05-11T02:48:54.362Z,9.40
2023-05-11T02:51:28.947Z,9.40
2023-05-11T02:53:58.657Z,9.40
2023-05-11T03:04:29.292Z,9.40
2023-05-11T03:06:56.863Z,9.30
2023-05-11T03:09:23.980Z,9.40
2023-05-11T03:11:51.842Z,9.30
2023-05-11T03:14:19.156Z,9.40
2023-05-11T03:16:48.856Z,9.30
2023-05-11T03:19:16.687Z,9.30
2023-05-11T03:21:43.623Z,9.30
2023-05-11T03:24:12.124Z,9.30
2023-05-11T03:26:40.618Z,9.30
2023-05-11T03:29:08.989Z,9.30
2023-05-11T03:31:36.268Z,9.30
2023-05-11T03:34:03.330Z,9.30
2023-05-11T03:36:36.592Z,9.30
2023-05-11T03:39:04.359Z,9.30
2023-05-11T03:41:35.029Z,9.30
2023-05-11T03:44:05.931Z,9.30
2023-05-11T03:46:37.935Z,9.30
2023-05-11T03:49:07.694Z,9.30
2023-05-11T03:51:37.940Z,9.30
2023-05-11T03:54:06.628Z,9.30
2023-05-11T03:56:40.292Z,9.30
2023-05-11T03:59:08.765Z,9.30
2023-05-11T04:01:36.303Z,9.30
2023-05-11T04:04:03.346Z,9.30
2023-05-11T04:06:31.527Z,9.30
2023-05-11T04:09:09.070Z,9.30
2023-05-11T04:11:37.444Z,9.40
2023-05-11T04:14:04.864Z,9.40
2023-05-11T04:16:31.965Z,9.30
2023-05-11T04:18:58.919Z,9.30
2023-05-11T04:21:25.928Z,9.30
2023-05-11T04:23:52.829Z,9.30
2023-05-11T04:26:19.777Z,9.30
2023-05-11T04:28:46.683Z,9.30
2023-05-11T04:31:14.360Z,9.40
2023-05-11T04:33:41.339Z,9.40
2023-05-11T04:36:08.521Z,9.40
2023-05-11T04:38:35.536Z,9.30
2023-05-11T04:41:06.836Z,9.40
2023-05-11T04:43:34.941Z,9.30
2023-05-11T04:46:02.026Z,9.40
2023-05-11T04:48:29.925Z,9.30
2023-05-11T04:50:57.786Z,9.30
2023-05-11T04:53:29.731Z,9.30
2023-05-11T04:55:57.426Z,9.30
2023-05-11T04:58:24.387Z,9.30
2023-05-11T05:00:51.399Z,9.30
2023-05-11T05:03:19.321Z,9.30
2023-05-11T05:05:46.480Z,9.40
2023-05-11T05:08:13.539Z,9.40
2023-05-11T05:10:40.568Z,9.40
2023-05-11T05:13:07.468Z,9.40
2023-05-11T05:15:34.442Z,9.50
2023-05-11T05:18:01.502Z,9.50
2023-05-11T05:20:29.246Z,9.50
2023-05-11T05:22:56.250Z,9.50
2023-05-11T05:25:23.808Z,9.50
2023-05-11T05:27:50.814Z,9.40
2023-05-11T05:30:19.774Z,9.40
2023-05-11T05:32:47.969Z,9.40
2023-05-11T05:35:15.246Z,9.40
2023-05-11T05:37:43.320Z,9.40
2023-05-11T05:40:11.207Z,9.40
2023-05-11T05:42:46.332Z,9.40
2023-05-11T05:45:17.205Z,9.40
2023-05-11T05:47:44.734Z,9.40
2023-05-11T05:50:11.901Z,9.50
2023-05-11T05:52:40.993Z,9.50
2023-05-11T05:55:08.847Z,9.50
2023-05-11T05:57:35.929Z,9.50
2023-05-11T06:00:04.479Z,9.50
2023-05-11T06:02:39.927Z,9.50
2023-05-11T06:05:09.024Z,9.50
2023-05-11T06:07:36.838Z,9.50
2023-05-11T06:10:04.207Z,9.60
2023-05-11T06:12:31.870Z,9.60
2023-05-11T06:14:59.111Z,9.60
2023-05-11T06:17:28.441Z,9.60
2023-05-11T06:19:55.582Z,9.60
2023-05-11T06:22:25.837Z,9.70
2023-05-11T06:24:52.800Z,9.70
2023-05-11T06:27:21.801Z,9.70
2023-05-11T06:29:50.777Z,9.80
2023-05-11T06:32:17.887Z,9.80
2023-05-11T06:34:45.054Z,9.90
2023-05-11T06:37:12.086Z,9.90
2023-05-11T06:39:38.983Z,9.90
2023-05-11T06:42:08.767Z,10.00
2023-05-11T06:44:35.755Z,10.10
2023-05-11T06:47:05.762Z,10.10
2023-05-11T06:49:33.089Z,10.10
2023-05-11T06:52:00.081Z,10.20
2023-05-11T06:54:27.180Z,10.20
2023-05-11T06:56:54.166Z,10.30
2023-05-11T06:59:21.150Z,10.30
2023-05-11T07:01:48.066Z,10.30
2023-05-11T07:04:15.025Z,10.40
2023-05-11T07:06:41.978Z,10.40
2023-05-11T07:09:08.905Z,10.40
2023-05-11T07:11:36.694Z,10.40
2023-05-11T07:14:03.915Z,10.40
2023-05-11T07:16:30.952Z,10.50
2023-05-11T07:18:58.008Z,10.60
2023-05-11T07:21:25.099Z,10.60
2023-05-11T07:23:52.577Z,10.60
2023-05-11T07:26:19.576Z,10.70
2023-05-11T07:28:46.398Z,10.70
2023-05-11T07:31:13.346Z,10.70
2023-05-11T07:33:40.736Z,10.80
2023-05-11T07:36:07.830Z,10.80
2023-05-11T07:38:34.937Z,10.90
2023-05-11T07:41:01.957Z,11.00
2023-05-11T07:43:28.888Z,11.00
2023-05-11T07:45:55.719Z,11.10
2023-05-11T07:48:22.733Z,11.20
2023-05-11T07:50:49.638Z,11.20
2023-05-11T07:53:16.758Z,11.30
2023-05-11T07:55:43.834Z,11.40
2023-05-11T07:58:10.907Z,11.40
2023-05-11T08:00:37.995Z,11.50
2023-05-11T08:03:04.868Z,11.60
2023-05-11T08:05:35.874Z,11.60
2023-05-11T08:08:03.030Z,11.60
2023-05-11T08:10:29.978Z,11.50
2023-05-11T08:12:56.780Z,11.60
2023-05-11T08:15:23.702Z,11.70
2023-05-11T08:17:50.614Z,11.80
2023-05-11T08:20:17.455Z,11.90
2023-05-11T08:22:45.672Z,12.00
2023-05-11T08:25:13.723Z,12.10
2023-05-11T08:27:40.743Z,12.10
2023-05-11T08:30:11.788Z,12.20
2023-05-11T08:32:54.496Z,12.20
2023-05-11T08:35:25.651Z,12.30
2023-05-11T08:37:52.500Z,12.30
2023-05-11T08:40:20.195Z,12.40
2023-05-11T08:42:49.541Z,12.50
2023-05-11T08:45:17.902Z,12.60
2023-05-11T08:47:46.292Z,12.70
2023-05-11T08:50:13.208Z,12.70
2023-05-11T08:52:40.796Z,12.70
2023-05-11T08:55:11.096Z,12.80
2023-05-11T08:57:39.065Z,12.70
2023-05-11T09:00:07.376Z,12.70
2023-05-11T09:02:35.829Z,12.80
2023-05-11T09:05:04.452Z,12.80
2023-05-11T09:07:33.381Z,12.70
2023-05-11T09:10:00.263Z,12.70
2023-05-11T09:12:28.466Z,12.70
2023-05-11T09:17:28.765Z,12.70
2023-05-11T09:20:06.749Z,12.70
2023-05-11T09:22:36.184Z,12.60
2023-05-11T09:25:04.195Z,12.60
2023-05-11T09:27:32.308Z,12.60
2023-05-11T09:30:23.159Z,12.70
2023-05-11T09:32:58.592Z,12.70
2023-05-11T09:35:33.380Z,12.80
2023-05-11T09:38:04.794Z,12.90
2023-05-11T09:40:37.395Z,13.00
2023-05-11T09:43:18.551Z,13.00
2023-05-11T09:45:48.690Z,13.00
2023-05-11T09:48:21.416Z,13.00
2023-05-11T09:50:49.485Z,12.90
2023-05-11T09:53:17.207Z,12.90
2023-05-11T09:55:55.469Z,12.90
2023-05-11T09:58:22.346Z,12.90
2023-05-11T10:00:53.739Z,13.00
2023-05-11T10:03:20.841Z,13.10
2023-05-11T10:05:59.513Z,13.30
2023-05-11T10:08:30.816Z,13.40
2023-05-11T10:10:58.233Z,13.50
2023-05-11T10:13:26.471Z,13.40
2023-05-11T10:15:54.836Z,13.50
2023-05-11T10:18:21.895Z,13.50
2023-05-11T10:20:49.357Z,13.50
2023-05-11T10:23:17.671Z,13.50
2023-05-11T10:25:45.171Z,13.50
2023-05-11T10:28:12.081Z,13.50
2023-05-11T10:30:40.801Z,13.60
2023-05-11T10:33:09.238Z,13.60
2023-05-11T10:35:38.531Z,13.60
2023-05-11T10:38:06.767Z,13.70
2023-05-11T10:40:43.780Z,13.60
2023-05-11T10:43:52.406Z,13.70
2023-05-11T10:46:34.238Z,13.70
2023-05-11T10:49:29.086Z,13.70
2023-05-11T10:52:30.219Z,13.70
2023-05-11T10:55:14.009Z,13.70
2023-05-11T10:58:07.170Z,13.70
2023-05-11T11:01:17.922Z,13.60
2023-05-11T11:04:05.130Z,13.40
2023-05-11T11:06:33.494Z,13.40
2023-05-11T11:09:11.137Z,13.40
2023-05-11T11:11:46.248Z,13.50
2023-05-11T11:14:15.090Z,13.50
2023-05-11T11:17:14.303Z,13.60
2023-05-11T11:19:41.296Z,13.70
2023-05-11T11:22:48.574Z,13.80
2023-05-11T11:25:36.097Z,13.80
2023-05-11T11:28:02.869Z,13.90
2023-05-11T11:30:30.802Z,13.80
2023-05-11T11:33:09.607Z,13.80
2023-05-11T11:35:43.080Z,13.80
2023-05-11T11:38:19.232Z,13.80
2023-05-11T11:40:52.961Z,13.90
2023-05-11T11:43:20.044Z,14.00
2023-05-11T11:45:57.371Z,14.10
2023-05-11T11:48:37.786Z,14.10
2023-05-11T11:51:13.859Z,14.30
2023-05-11T11:53:44.655Z,14.40
2023-05-11T11:56:14.294Z,14.50
2023-05-11T11:58:46.898Z,14.50
2023-05-11T12:01:19.898Z,14.50
2023-05-11T12:04:09.563Z,14.50
2023-05-11T12:06:41.471Z,14.60
2023-05-11T12:09:08.601Z,14.50
2023-05-11T12:11:35.477Z,14.40
2023-05-11T12:14:03.055Z,14.30
2023-05-11T12:16:30.446Z,14.20
2023-05-11T12:19:01.956Z,14.10
2023-05-11T12:21:34.379Z,14.00
2023-05-11T12:24:04.345Z,13.90
2023-05-11T12:26:32.873Z,13.80
2023-05-11T12:29:11.472Z,13.70
2023-05-11T12:31:42.946Z,13.80
2023-05-11T12:34:16.095Z,13.80
2023-05-11T12:36:43.877Z,13.90
2023-05-11T12:39:20.137Z,13.90
2023-05-11T12:41:51.653Z,14.00
2023-05-11T12:44:19.247Z,14.10
2023-05-11T12:46:47.722Z,14.10
2023-05-11T12:49:26.326Z,14.10
2023-05-11T12:52:00.093Z,14.20
2023-05-11T12:54:41.158Z,14.20
2023-05-11T12:57:22.839Z,14.20
2023-05-11T12:59:49.744Z,14.30
2023-05-11T13:02:20.910Z,14.50
2023-05-11T13:04:48.381Z,14.60
2023-05-11T13:07:24.510Z,14.70
2023-05-11T13:10:01.694Z,14.90
2023-05-11T13:12:32.063Z,15.00
2023-05-11T13:15:12.736Z,15.10
2023-05-11T13:17:41.764Z,15.20
2023-05-11T13:20:21.859Z,15.10
2023-05-11T13:22:50.664Z,15.00
2023-05-11T13:25:20.254Z,15.00
2023-05-11T13:27:47.460Z,14.90
2023-05-11T13:30:14.567Z,14.90
2023-05-11T13:32:41.353Z,14.90
2023-05-11T13:35:08.485Z,14.80
2023-05-11T13:37:35.348Z,14.70
2023-05-11T13:40:02.368Z,14.60
2023-05-11T13:42:29.429Z,14.50
2023-05-11T13:44:56.354Z,14.40
2023-05-11T13:47:23.996Z,14.30
2023-05-11T13:49:50.776Z,14.30
2023-05-11T13:52:17.520Z,14.20
2023-05-11T13:54:44.448Z,14.00
2023-05-11T13:57:11.194Z,13.80
2023-05-11T13:59:37.979Z,13.70
2023-05-11T14:02:04.894Z,13.50
2023-05-11T14:04:32.012Z,13.40
2023-05-11T14:06:59.311Z,13.40
2023-05-11T14:09:26.311Z,13.20
2023-05-11T14:11:53.070Z,13.10
2023-05-11T14:14:19.840Z,13.00
2023-05-11T14:16:46.603Z,12.90
2023-05-11T14:19:13.524Z,12.90
2023-05-11T14:21:40.650Z,12.80
2023-05-11T14:24:12.477Z,12.80
2023-05-11T14:26:40.259Z,12.80
2023-05-11T14:29:07.424Z,12.90
2023-05-11T14:31:35.865Z,12.90
2023-05-11T14:34:03.930Z,12.90
2023-05-11T14:36:31.730Z,12.90
2023-05-11T14:38:58.573Z,13.00
2023-05-11T14:41:25.643Z,13.10
2023-05-11T14:43:52.473Z,13.10
2023-05-11T14:46:19.674Z,13.10
2023-05-11T14:48:46.526Z,13.10
2023-05-11T14:51:13.397Z,13.10
2023-05-11T14:53:40.333Z,13.10
2023-05-11T14:56:07.529Z,13.20
2023-05-11T14:58:35.316Z,13.10
2023-05-11T15:01:02.132Z,13.00
2023-05-11T15:03:28.961Z,13.00
2023-05-11T15:05:55.902Z,12.90
2023-05-11T15:08:30.303Z,12.90
2023-05-11T15:10:57.845Z,12.80
2023-05-11T15:13:24.916Z,12.80
2023-05-11T15:15:52.110Z,12.80
2023-05-11T15:18:19.458Z,12.80
2023-05-11T15:20:46.722Z,12.90
2023-05-11T15:23:16.618Z,12.90
2023-05-11T15:25:44.857Z,12.90
2023-05-11T15:28:12.104Z,12.90
2023-05-11T15:30:38.972Z,12.90
2023-05-11T15:33:05.766Z,12.90
2023-05-11T15:35:36.419Z,12.90
2023-05-11T15:38:04.008Z,13.00
2023-05-11T15:40:30.805Z,13.00
2023-05-11T15:42:58.780Z,12.90
2023-05-11T15:45:26.391Z,13.00
2023-05-11T15:47:54.109Z,12.90
2023-05-11T15:50:21.566Z,12.90
2023-05-11T15:52:48.631Z,12.80
2023-05-11T15:55:15.467Z,12.80
2023-05-11T15:57:42.348Z,12.80
2023-05-11T16:00:10.584Z,12.70
2023-05-11T16:02:37.568Z,12.70
2023-05-11T16:05:04.613Z,12.70
2023-05-11T16:07:31.505Z,12.60
2023-05-11T16:09:58.230Z,12.50
2023-05-11T16:12:25.020Z,12.50
2023-05-11T16:14:51.972Z,12.40
2023-05-11T16:17:18.963Z,12.40
2023-05-11T16:19:45.942Z,12.30
2023-05-11T16:22:13.286Z,12.30
2023-05-11T16:24:40.177Z,12.30
2023-05-11T16:27:07.038Z,12.40
2023-05-11T16:29:34.371Z,12.40
2023-05-11T16:32:01.547Z,12.40
2023-05-11T16:34:28.553Z,12.40
2023-05-11T16:36:57.206Z,12.40
2023-05-11T16:39:25.394Z,12.40
2023-05-11T16:41:52.135Z,12.50
2023-05-11T16:44:18.855Z,12.60
2023-05-11T16:46:45.714Z,12.60
2023-05-11T16:49:12.631Z,12.50
2023-05-11T16:51:39.360Z,12.40
2023-05-11T16:54:06.137Z,12.30
2023-05-11T16:56:33.206Z,12.20
2023-05-11T16:59:00.059Z,12.20
2023-05-11T17:01:26.944Z,12.20
2023-05-11T17:03:54.149Z,12.10
2023-05-11T17:06:23.789Z,12.20
2023-05-11T17:08:51.264Z,12.20
2023-05-11T17:11:18.032Z,12.10
2023-05-11T17:13:44.805Z,12.00
2023-05-11T17:16:11.901Z,12.00
2023-05-11T17:18:38.756Z,11.90
2023-05-11T17:21:05.891Z,11.90
2023-05-11T17:23:33.859Z,11.90
2023-05-11T17:26:07.778Z,11.80
2023-05-11T17:28:34.521Z,11.80
2023-05-11T17:31:14.882Z,11.70
2023-05-11T17:33:42.270Z,11.70
2023-05-11T17:36:09.696Z,11.70
2023-05-11T17:38:36.834Z,11.70
2023-05-11T17:41:06.759Z,11.60
2023-05-11T17:43:35.101Z,11.60
2023-05-11T17:46:04.104Z,11.60
2023-05-11T17:48:32.120Z,11.50
2023-05-11T17:50:59.090Z,11.50
2023-05-11T17:53:26.706Z,11.40
2023-05-11T17:55:53.539Z,11.40
2023-05-11T17:58:20.330Z,11.40
2023-05-11T18:00:49.175Z,11.30
2023-05-11T18:03:16.802Z,11.30
2023-05-11T18:05:48.401Z,11.30
2023-05-11T18:08:16.116Z,11.30
2023-05-11T18:10:43.064Z,11.20
2023-05-11T18:13:09.957Z,11.20
2023-05-11T18:15:37.757Z,11.20
2023-05-11T18:18:04.696Z,11.20
2023-05-11T18:20:31.458Z,11.20
2023-05-11T18:22:58.225Z,11.20
2023-05-11T18:25:25.069Z,11.20
2023-05-11T18:27:52.036Z,11.10
2023-05-11T18:30:19.103Z,11.10
2023-05-11T18:32:46.096Z,11.00
2023-05-11T18:35:12.852Z,11.00
2023-05-11T18:37:39.632Z,11.10
2023-05-11T18:40:07.645Z,11.00
2023-05-11T18:42:34.521Z,11.00
2023-05-11T18:45:01.413Z,11.00
2023-05-11T18:47:28.245Z,10.90
2023-05-11T18:49:55.243Z,10.90
2023-05-11T18:52:22.062Z,10.80
2023-05-11T18:54:48.794Z,10.80
2023-05-11T18:57:18.779Z,10.80
2023-05-11T18:59:45.565Z,10.80
2023-05-11T19:02:12.586Z,10.70
2023-05-11T19:04:39.391Z,10.70
2023-05-11T19:07:06.266Z,10.70
2023-05-11T19:09:34.136Z,10.70
2023-05-11T19:12:00.907Z,10.70
2023-05-11T19:14:27.618Z,10.70
2023-05-11T19:16:54.499Z,10.60
2023-05-11T19:19:21.490Z,10.60
2023-05-11T19:21:48.930Z,10.60
2023-05-11T19:24:15.687Z,10.60
2023-05-11T19:26:45.361Z,10.60
2023-05-11T19:29:17.738Z,10.50
2023-05-11T19:31:44.543Z,10.50
2023-05-11T19:34:11.320Z,10.50
2023-05-11T19:36:38.651Z,10.50
2023-05-11T19:39:05.395Z,10.50
2023-05-11T19:41:32.163Z,10.50
2023-05-11T19:43:58.902Z,10.50
2023-05-11T19:46:25.998Z,10.50
2023-05-11T19:48:52.970Z,10.50
2023-05-11T19:51:19.770Z,10.50
2023-05-11T19:53:46.591Z,10.40
2023-05-11T19:56:13.299Z,10.40
2023-05-11T19:58:40.174Z,10.30
2023-05-11T20:01:07.246Z,10.30
2023-05-11T20:03:34.204Z,10.30
2023-05-11T20:06:01.022Z,10.30
2023-05-11T20:08:27.834Z,10.20
2023-05-11T20:10:54.617Z,10.20
2023-05-11T20:13:22.011Z,10.20
2023-05-11T20:15:48.937Z,10.20
2023-05-11T20:18:16.507Z,10.20
2023-05-11T20:20:43.244Z,10.20
2023-05-11T20:23:09.977Z,10.20
2023-05-11T20:25:40.042Z,10.20
2023-05-11T20:28:06.815Z,10.10
2023-05-11T20:30:33.543Z,10.20
2023-05-11T20:35:31.536Z,10.10
2023-05-11T20:37:58.316Z,10.10
2023-05-11T20:40:27.775Z,10.10
2023-05-11T20:42:54.481Z,10.20
2023-05-11T20:45:21.378Z,10.20
2023-05-11T20:47:48.249Z,10.10
2023-05-11T20:50:15.391Z,10.10
2023-05-11T20:52:42.122Z,10.10
2023-05-11T20:55:08.881Z,10.10
2023-05-11T20:57:35.644Z,10.10
2023-05-11T21:00:04.358Z,10.10
2023-05-11T21:02:31.659Z,10.10
2023-05-11T21:05:01.908Z,10.10
2023-05-11T21:07:29.678Z,10.00
2023-05-11T21:09:56.415Z,10.00
2023-05-11T21:12:23.223Z,10.00
2023-05-11T21:14:49.975Z,10.00
2023-05-11T21:17:16.886Z,10.00
2023-05-11T21:19:43.793Z,10.00
2023-05-11T21:22:11.075Z,10.00
2023-05-11T21:24:39.128Z,10.10
2023-05-11T21:27:06.065Z,10.00
2023-05-11T21:29:32.823Z,10.10
2023-05-11T21:31:59.582Z,10.10
2023-05-11T21:34:26.335Z,10.10
2023-05-11T21:36:53.538Z,10.10
2023-05-11T21:39:20.295Z,10.10
2023-05-11T21:41:47.770Z,10.10
2023-05-11T21:44:14.589Z,10.10
2023-05-11T21:46:41.330Z,10.10
2023-05-11T21:49:08.124Z,10.00
2023-05-11T21:51:34.887Z,10.00
2023-05-11T21:54:01.718Z,10.00
2023-05-11T21:56:28.547Z,10.00
2023-05-11T21:58:55.303Z,10.00
2023-05-11T22:01:22.569Z,9.90
2023-05-11T22:03:49.497Z,9.90
2023-05-11T22:06:16.335Z,9.90
2023-05-11T22:08:44.094Z,9.80
2023-05-11T22:11:10.851Z,9.80
2023-05-11T22:13:37.624Z,9.80
2023-05-11T22:16:05.035Z,9.80
2023-05-11T22:18:31.832Z,9.80
2023-05-11T22:20:58.610Z,9.80
2023-05-11T22:23:25.400Z,9.80
2023-05-11T22:25:52.158Z,9.80
2023-05-11T22:28:18.923Z,9.70
2023-05-11T22:30:46.084Z,9.70
2023-05-11T22:33:12.884Z,9.70
2023-05-11T22:35:40.118Z,9.80
2023-05-11T22:38:06.868Z,9.80
2023-05-11T22:40:33.615Z,9.70
2023-05-11T22:43:00.397Z,9.70
2023-05-11T22:45:27.201Z,9.70
2023-05-11T22:47:54.105Z,9.70
2023-05-11T22:50:21.276Z,9.70
2023-05-11T22:52:48.285Z,9.70
2023-05-11T22:55:15.022Z,9.70
2023-05-11T22:57:41.739Z,9.70
2023-05-11T23:00:12.152Z,9.80
2023-05-11T23:02:39.025Z,9.70
2023-05-11T23:05:06.300Z,9.70
2023-05-11T23:07:33.466Z,9.70
2023-05-11T23:10:00.317Z,9.70
2023-05-11T23:12:27.307Z,9.70
2023-05-11T23:14:54.128Z,9.70
2023-05-11T23:17:20.950Z,9.70
2023-05-11T23:19:47.975Z,9.70
2023-05-11T23:22:15.115Z,9.70
2023-05-11T23:24:41.836Z,9.70
2023-05-11T23:27:08.633Z,9.70
2023-05-11T23:29:35.556Z,9.70
2023-05-11T23:32:03.434Z,9.70
2023-05-11T23:34:30.268Z,9.70
2023-05-11T23:36:57.011Z,9.70
2023-05-11T23:39:23.759Z,9.60
2023-05-11T23:41:50.507Z,9.60
2023-05-11T23:44:17.575Z,9.60
2023-05-11T23:46:44.766Z,9.60
2023-05-11T23:49:11.572Z,9.60
2023-05-11T23:51:38.264Z,9.50
2023-05-11T23:54:05.080Z,9.60
2023-05-11T23:56:31.871Z,9.60
2023-05-11T23:58:58.576Z,9.60
